Time;durP1;ratioP1;P1;durP2;ratioP2;P2;SDS_P1;SDS_P2;PMS_P1;PMS_P2;Temp;Humidity;BMP_temperature;BMP_pressure;BME280_temperature;BME280_humidity;BME280_pressure;Samples;Min_cycle;Max_cycle;Signal;HPM_P1;HPM_P2
2023/05/26 00:09:27;;;;;;;1.90;1.00;;;;;;;;;;20887270;28;20227;-82
2023/05/26 00:19:31;;;;;;;3.43;1.37;;;;;;;;;;20865367;28;20241;-81
2023/05/26 00:29:35;;;;;;;2.50;1.40;;;;;;;;;;20881453;28;20790;-83
2023/05/26 00:39:37;;;;;;;2.93;1.53;;;;;;;;;;20880465;28;20701;-81
2023/05/26 00:49:38;;;;;;;3.83;1.90;;;19.00;99.90;;;;;;20914636;28;20296;-82
2023/05/26 00:59:40;;;;;;;2.80;1.20;;;;;;;;;;20866258;28;20234;-84
2023/05/26 01:09:42;;;;;;;3.33;1.60;;;;;;;;;;20864393;28;20303;-82
2023/05/26 01:20:10;;;;;;;2.43;1.30;;;18.40;99.90;;;;;;20893639;28;20233;-81
2023/05/26 01:30:13;;;;;;;2.10;1.33;;;;;;;;;;20897503;28;20703;-83
2023/05/26 01:40:15;;;;;;;2.27;1.30;;;;;;;;;;20903368;28;20266;-83
2023/05/26 01:50:20;;;;;;;2.60;1.50;;;18.10;99.90;;;;;;20892297;28;20241;-83
2023/05/26 02:00:24;;;;;;;3.03;1.50;;;;;;;;;;20842890;28;20234;-83
2023/05/26 02:10:26;;;;;;;2.53;1.40;;;;;;;;;;20888922;28;20221;-82
2023/05/26 02:20:27;;;;;;;2.57;1.60;;;;;;;;;;20890091;28;20229;-82
2023/05/26 02:30:30;;;;;;;3.43;1.47;;;;;;;;;;20872121;28;20238;-82
2023/05/26 02:40:31;;;;;;;1.83;1.23;;;;;;;;;;20905108;28;20229;-82
2023/05/26 02:50:35;;;;;;;3.13;1.53;;;;;;;;;;20888733;28;20291;-83
2023/05/26 03:00:37;;;;;;;3.70;2.03;;;;;;;;;;20888537;28;20729;-82
2023/05/26 03:10:39;;;;;;;2.63;1.23;;;;;;;;;;20886877;28;20226;-83
2023/05/26 03:20:42;;;;;;;2.93;1.53;;;;;;;;;;20938340;28;20612;-82
2023/05/26 03:30:44;;;;;;;3.17;1.40;;;;;;;;;;20886343;28;20624;-82
2023/05/26 03:40:46;;;;;;;2.90;1.60;;;16.80;99.90;;;;;;20897678;28;20287;-82
2023/05/26 03:50:48;;;;;;;2.83;1.37;;;;;;;;;;20884753;28;20306;-83
2023/05/26 04:00:50;;;;;;;2.10;1.30;;;;;;;;;;20883219;28;20300;-82
2023/05/26 04:10:52;;;;;;;2.43;1.17;;;;;;;;;;20866400;28;20233;-82
2023/05/26 04:20:54;;;;;;;2.97;1.30;;;;;;;;;;20800583;28;20223;-82
2023/05/26 04:30:56;;;;;;;3.93;1.50;;;;;;;;;;20816653;28;20793;-82
2023/05/26 04:40:57;;;;;;;2.70;1.67;;;;;;;;;;20833100;28;20246;-82
2023/05/26 04:50:59;;;;;;;2.90;1.60;;;;;;;;;;20821624;28;20222;-82
2023/05/26 05:01:02;;;;;;;2.73;1.43;;;;;;;;;;20801550;28;20650;-83
2023/05/26 05:11:27;;;;;;;2.50;1.40;;;;;;;;;;20801898;28;20226;-83
2023/05/26 05:21:30;;;;;;;2.73;1.97;;;;;;;;;;20798004;28;20268;-83
2023/05/26 05:31:32;;;;;;;3.60;1.60;;;;;;;;;;20803895;28;20227;-84
2023/05/26 05:41:35;;;;;;;3.27;1.50;;;;;;;;;;20798109;28;20214;-82
2023/05/26 05:51:37;;;;;;;5.97;1.80;;;;;;;;;;20794816;28;20257;-83
2023/05/26 06:01:39;;;;;;;4.43;1.40;;;;;;;;;;20870824;28;20561;-83
2023/05/26 06:11:43;;;;;;;4.27;1.80;;;;;;;;;;20856544;28;20230;-82
2023/05/26 06:21:45;;;;;;;2.47;1.43;;;;;;;;;;20892947;28;20225;-83
2023/05/26 06:31:47;;;;;;;3.63;1.93;;;;;;;;;;20932799;28;20287;-82
2023/05/26 06:41:52;;;;;;;3.37;1.70;;;;;;;;;;20910816;28;20233;-82
2023/05/26 06:51:54;;;;;;;2.03;1.40;;;;;;;;;;20872580;28;20226;-82
2023/05/26 07:01:58;;;;;;;3.47;1.60;;;;;;;;;;20871916;28;20601;-82
2023/05/26 07:11:59;;;;;;;2.97;1.70;;;;;;;;;;20858401;28;20283;-83
2023/05/26 07:22:35;;;;;;;3.40;1.70;;;;;;;;;;20887127;28;20279;-83
2023/05/26 07:32:45;;;;;;;3.90;1.87;;;;;;;;;;20803267;28;20797;-83
2023/05/26 07:42:47;;;;;;;4.03;1.67;;;;;;;;;;20837890;28;20199;-83
2023/05/26 07:52:49;;;;;;;4.37;1.90;;;;;;;;;;20898196;28;20223;-83
2023/05/26 08:02:51;;;;;;;8.97;1.93;;;;;;;;;;20916500;28;20695;-84
2023/05/26 08:12:53;;;;;;;3.20;1.90;;;;;;;;;;20940893;28;20721;-84
2023/05/26 08:22:58;;;;;;;2.70;1.57;;;;;;;;;;20917589;28;20222;-83
2023/05/26 08:32:59;;;;;;;2.70;1.60;;;;;;;;;;20893364;28;20767;-83
2023/05/26 08:43:09;;;;;;;3.63;1.70;;;;;;;;;;20880588;28;20220;-84
2023/05/26 08:53:11;;;;;;;2.77;1.63;;;20.40;99.90;;;;;;20918087;28;20588;-84
2023/05/26 09:03:13;;;;;;;3.63;1.67;;;;;;;;;;20881676;28;20221;-83
2023/05/26 09:13:15;;;;;;;3.37;1.50;;;22.20;99.90;;;;;;20900825;28;20544;-83
2023/05/26 09:23:18;;;;;;;3.47;1.70;;;;;;;;;;20895555;28;20271;-83
2023/05/26 09:33:20;;;;;;;3.47;1.53;;;;;;;;;;20875787;28;20246;-82
2023/05/26 09:43:23;;;;;;;3.20;1.77;;;;;;;;;;20904154;28;20235;-83
2023/05/26 09:53:26;;;;;;;3.67;1.63;;;;;;;;;;20951895;28;20213;-82
2023/05/26 10:03:28;;;;;;;3.53;1.47;;;;;;;;;;20890649;28;20238;-82
2023/05/26 10:13:30;;;;;;;3.13;1.43;;;;;;;;;;20906628;28;20311;-83
2023/05/26 10:23:37;;;;;;;4.23;1.30;;;;;;;;;;20883926;28;20237;-84
2023/05/26 10:33:40;;;;;;;2.70;1.50;;;;;;;;;;20905972;28;20269;-83
2023/05/26 10:43:42;;;;;;;2.77;1.57;;;;;;;;;;20949521;28;20290;-83
2023/05/26 10:53:46;;;;;;;2.93;1.30;;;23.50;99.90;;;;;;20970803;28;20786;-83
2023/05/26 11:04:04;;;;;;;2.53;1.25;;;23.80;99.90;;;;;;20943363;28;20221;-83
2023/05/26 11:14:10;;;;;;;2.95;1.30;;;24.00;99.90;;;;;;20910795;28;20304;-83
2023/05/26 11:24:12;;;;;;;3.38;1.58;;;;;;;;;;20938126;28;20615;-83
2023/05/26 11:34:14;;;;;;;3.17;1.40;;;;;;;;;;20915925;28;20245;-83
2023/05/26 11:44:15;;;;;;;3.05;1.30;;;;;;;;;;20825200;28;20260;-83
2023/05/26 11:54:18;;;;;;;1.83;0.93;;;;;;;;;;20946633;28;20235;-82
2023/05/26 12:04:27;;;;;;;2.65;1.25;;;24.90;99.90;;;;;;20965882;28;20227;-83
2023/05/26 12:14:29;;;;;;;3.45;1.27;;;;;;;;;;20929915;28;20800;-83
2023/05/26 12:24:34;;;;;;;3.17;1.20;;;;;;;;;;20851037;28;20310;-83
2023/05/26 12:34:41;;;;;;;4.22;1.30;;;25.30;99.90;;;;;;20900769;28;20233;-84
2023/05/26 12:44:43;;;;;;;2.20;1.23;;;;;;;;;;20934876;28;20217;-83
2023/05/26 12:54:45;;;;;;;1.92;1.27;;;;;;;;;;20904775;28;20230;-84
2023/05/26 13:04:47;;;;;;;1.98;1.20;;;;;;;;;;20930644;28;20266;-83
2023/05/26 13:14:49;;;;;;;2.38;1.08;;;;;;;;;;20861345;28;20219;-83
2023/05/26 13:24:50;;;;;;;3.50;1.13;;;;;;;;;;20908891;28;20296;-83
2023/05/26 13:34:52;;;;;;;3.38;1.30;;;;;;;;;;20898444;28;20713;-83
2023/05/26 13:44:54;;;;;;;3.22;1.50;;;;;;;;;;20894613;28;20555;-83
2023/05/26 13:54:56;;;;;;;2.28;1.17;;;;;;;;;;20888060;28;20243;-83
2023/05/26 14:04:59;;;;;;;3.65;1.08;;;;;;;;;;20880968;28;20225;-83
2023/05/26 14:15:01;;;;;;;3.50;1.15;;;;;;;;;;20887575;28;20232;-83
2023/05/26 14:25:03;;;;;;;2.95;1.30;;;;;;;;;;20903731;28;20208;-82
2023/05/26 14:35:05;;;;;;;3.35;1.13;;;;;;;;;;20866852;28;20273;-83
2023/05/26 14:45:07;;;;;;;2.50;1.05;;;;;;;;;;20911311;28;20221;-84
2023/05/26 14:55:09;;;;;;;3.63;1.10;;;;;;;;;;20962291;28;20253;-83
2023/05/26 15:05:11;;;;;;;3.88;1.20;;;;;;;;;;20983010;28;20212;-83
2023/05/26 15:15:13;;;;;;;4.05;1.30;;;;;;;;;;20948786;28;20778;-83
2023/05/26 15:25:15;;;;;;;1.80;1.00;;;;;;;;;;20978077;28;20721;-82
2023/05/26 15:35:17;;;;;;;2.65;0.98;;;;;;;;;;20976351;28;20236;-83
2023/05/26 15:45:22;;;;;;;2.40;1.13;;;;;;;;;;20982429;28;20349;-82
2023/05/26 15:55:24;;;;;;;3.67;1.08;;;;;;;;;;20998582;28;20251;-82
2023/05/26 16:05:27;;;;;;;2.95;1.10;;;;;;;;;;20982161;28;20242;-83
2023/05/26 16:15:30;;;;;;;3.00;1.23;;;;;;;;;;20967530;28;20247;-83
2023/05/26 16:25:32;;;;;;;2.42;0.95;;;;;;;;;;20974032;28;20222;-84
2023/05/26 16:35:40;;;;;;;2.92;1.38;;;;;;;;;;20937564;28;20732;-83
2023/05/26 16:45:42;;;;;;;3.33;1.50;;;;;;;;;;20908484;28;20581;-83
2023/05/26 16:55:44;;;;;;;2.92;1.17;;;;;;;;;;20913867;28;20870;-82
2023/05/26 17:05:45;;;;;;;4.30;1.60;;;;;;;;;;20932374;28;20241;-83
2023/05/26 17:15:47;;;;;;;3.50;1.42;;;;;;;;;;20909947;28;20703;-84
2023/05/26 17:25:50;;;;;;;3.13;1.25;;;;;;;;;;20923691;28;20226;-84
2023/05/26 17:35:51;;;;;;;2.95;1.38;;;;;;;;;;20973555;28;20231;-84
2023/05/26 17:45:53;;;;;;;3.42;1.55;;;;;;;;;;20903562;28;20226;-83
2023/05/26 17:55:56;;;;;;;4.65;1.38;;;;;;;;;;20893231;28;20284;-81
2023/05/26 18:05:57;;;;;;;3.70;1.33;;;;;;;;;;20907068;28;20199;-81
2023/05/26 18:15:59;;;;;;;2.60;1.17;;;;;;;;;;20969948;28;20230;-81
2023/05/26 18:26:02;;;;;;;5.18;1.30;;;;;;;;;;20970419;28;20293;-82
2023/05/26 18:36:06;;;;;;;3.08;1.55;;;;;;;;;;20970595;28;20230;-82
2023/05/26 18:46:08;;;;;;;4.95;1.50;;;;;;;;;;20952208;28;20206;-81
2023/05/26 18:56:13;;;;;;;2.83;1.17;;;;;;;;;;20967699;28;20213;-81
2023/05/26 19:06:15;;;;;;;2.50;1.08;;;;;;;;;;20954857;28;20235;-81
2023/05/26 19:16:24;;;;;;;3.00;1.10;;;;;;;;;;20932002;28;20234;-81
2023/05/26 19:26:26;;;;;;;3.17;1.23;;;;;;;;;;20913476;28;20277;-81
2023/05/26 19:36:29;;;;;;;3.42;1.27;;;;;;;;;;20835151;28;20601;-80
2023/05/26 19:46:31;;;;;;;3.95;1.38;;;;;;;;;;20832908;28;20219;-84
2023/05/26 19:56:33;;;;;;;2.83;1.27;;;;;;;;;;20798105;28;20584;-84
2023/05/26 20:06:37;;;;;;;2.95;1.20;;;;;;;;;;20815012;28;20265;-81
2023/05/26 20:16:39;;;;;;;3.70;1.10;;;;;;;;;;20796196;28;20285;-83
2023/05/26 20:26:41;;;;;;;3.58;1.40;;;;;;;;;;20821068;28;20241;-83
2023/05/26 20:36:43;;;;;;;3.35;1.45;;;;;;;;;;20876886;28;20602;-81
2023/05/26 20:46:45;;;;;;;2.20;1.00;;;;;;;;;;20861069;28;20252;-83
2023/05/26 20:56:47;;;;;;;2.47;1.00;;;;;;;;;;20898485;28;20231;-81
2023/05/26 21:06:48;;;;;;;3.92;1.40;;;;;;;;;;20911208;28;20253;-83
2023/05/26 21:16:50;;;;;;;3.08;1.35;;;;;;;;;;20911599;28;20327;-83
2023/05/26 21:26:52;;;;;;;4.28;1.05;;;;;;;;;;20912329;28;20701;-83
2023/05/26 21:36:54;;;;;;;7.43;1.67;;;;;;;;;;20926926;28;21425;-84
2023/05/26 21:46:56;;;;;;;5.03;1.47;;;;;;;;;;20933508;28;20232;-84
2023/05/26 21:56:58;;;;;;;3.43;1.03;;;;;;;;;;20909919;28;20238;-80
2023/05/26 22:07:00;;;;;;;4.43;1.53;;;;;;;;;;20907881;28;20256;-84
2023/05/26 22:17:01;;;;;;;3.13;1.20;;;;;;;;;;20910666;28;20234;-84
2023/05/26 22:27:03;;;;;;;4.30;1.30;;;;;;;;;;20907939;28;20239;-84
2023/05/26 22:37:05;;;;;;;4.10;1.20;;;;;;;;;;20917540;28;20233;-83
2023/05/26 22:47:07;;;;;;;4.23;1.27;;;;;;;;;;20938807;28;20237;-84
2023/05/26 22:57:09;;;;;;;2.83;0.80;;;;;;;;;;20889040;28;20227;-85
2023/05/26 23:07:11;;;;;;;2.90;1.10;;;;;;;;;;20905790;28;20229;-85
2023/05/26 23:17:13;;;;;;;3.20;1.20;;;;;;;;;;20889251;28;20229;-85
2023/05/26 23:27:15;;;;;;;2.43;0.90;;;;;;;;;;20895407;28;20232;-84
2023/05/26 23:37:16;;;;;;;3.37;0.93;;;;;;;;;;20886689;28;20268;-82
2023/05/26 23:47:18;;;;;;;3.97;0.83;;;;;;;;;;20904765;28;20229;-84
2023/05/26 23:57:20;;;;;;;1.87;0.90;;;;;;;;;;20925150;28;20245;-84
